Time;durP1;ratioP1;P1;durP2;ratioP2;P2;SDS_P1;SDS_P2;PMS_P1;PMS_P2;Temp;Humidity;BMP_temperature;BMP_pressure;BME280_temperature;BME280_humidity;BME280_pressure;Samples;Min_cycle;Max_cycle;Signal;HPM_P1;HPM_P2
2023/09/07 18:14:24;;;;;;;8.35;4.47;;;;;;;26.15;42.14;100730.06;4233069;27;20422;-67
2023/09/07 18:16:29;;;;;;;7.32;4.15;;;;;;;26.19;42.63;100730.81;4195781;28;20063;-67
2023/09/07 18:18:31;;;;;;;7.82;4.10;;;;;;;26.20;43.45;100740.53;4208211;28;20124;-66
2023/09/07 18:20:34;;;;;;;5.93;3.72;;;;;;;26.19;43.10;100733.47;4234578;22;20036;-70
2023/09/07 18:22:37;;;;;;;7.20;4.07;;;;;;;26.20;42.43;100740.53;4170128;28;20507;-70
2023/09/07 18:24:40;;;;;;;7.20;4.47;;;;;;;26.22;42.41;100741.31;4176424;28;20049;-70
2023/09/07 18:26:46;;;;;;;6.15;3.92;;;;;;;26.21;43.15;100742.25;4178119;28;20045;-70
2023/09/07 18:28:49;;;;;;;9.85;4.57;;;;;;;26.18;42.90;100745.94;4175916;28;20049;-70
2023/09/07 18:30:53;;;;;;;6.70;3.90;;;;;;;26.15;43.25;100743.38;4172465;28;20479;-70
2023/09/07 18:32:58;;;;;;;6.75;4.40;;;;;;;26.09;43.55;100741.03;4142196;28;20137;-70
2023/09/07 18:35:02;;;;;;;6.72;4.35;;;;;;;26.01;43.89;100741.38;4156235;28;20049;-70
2023/09/07 18:37:05;;;;;;;6.72;4.43;;;;;;;25.96;43.56;100740.69;4159072;28;20059;-70
2023/09/07 18:39:08;;;;;;;7.03;4.22;;;;;;;25.89;43.67;100744.56;4159510;28;20037;-70
2023/09/07 18:41:12;;;;;;;7.60;4.45;;;;;;;25.82;43.82;100743.97;4158006;28;20041;-70
2023/09/07 18:43:15;;;;;;;7.43;4.18;;;;;;;25.75;44.22;100746.03;4158872;28;20448;-70
2023/09/07 18:45:18;;;;;;;10.13;4.82;;;;;;;25.70;44.43;100744.50;4155751;28;20052;-72
2023/09/07 18:47:24;;;;;;;7.93;3.92;;;;;;;25.64;44.73;100737.66;4159016;28;20123;-72
2023/09/07 18:49:28;;;;;;;9.02;4.53;;;;;;;25.56;45.07;100746.00;4153997;28;20061;-72
2023/09/07 18:51:31;;;;;;;8.90;4.28;;;;;;;25.50;45.71;100748.09;4160801;28;20049;-72
2023/09/07 18:53:35;;;;;;;7.90;5.32;;;;;;;25.44;45.46;100749.22;4149410;28;20507;-69
2023/09/07 18:55:39;;;;;;;14.05;4.97;;;;;;;25.36;46.37;100746.84;4164109;28;20042;-72
2023/09/07 18:57:42;;;;;;;9.77;4.70;;;;;;;25.33;46.57;100748.78;4161065;28;20048;-69
2023/09/07 18:59:48;;;;;;;6.47;4.28;;;;;;;25.25;46.11;100749.94;4158374;28;20135;-71
2023/09/07 19:01:53;;;;;;;8.38;4.95;;;;;;;25.20;46.64;100748.41;4154183;28;20080;-70
2023/09/07 19:04:09;;;;;;;8.60;5.47;;;;;;;25.15;45.97;100748.63;4150203;28;21316;-71
2023/09/07 19:06:12;;;;;;;8.13;4.60;;;;;;;25.04;45.94;100754.41;4160577;28;20072;-70
2023/09/07 19:08:15;;;;;;;8.90;4.30;;;;;;;24.97;46.39;100750.25;4161349;28;20504;-70
2023/09/07 19:10:18;;;;;;;7.78;4.57;;;;;;;24.90;47.17;100749.63;4160658;28;20378;-70
2023/09/07 19:12:21;;;;;;;10.30;4.05;;;;;;;24.84;46.88;100746.38;4161060;28;20412;-69
2023/09/07 19:14:25;;;;;;;7.03;4.45;;;;;;;24.80;47.35;100752.75;4153670;28;20500;-68
2023/09/07 19:16:28;;;;;;;8.48;4.63;;;;;;;24.73;47.35;100752.97;4152706;28;20518;-68
2023/09/07 19:18:31;;;;;;;7.63;4.75;;;;;;;24.68;47.54;100751.44;4143217;28;20128;-70
2023/09/07 19:20:36;;;;;;;10.30;5.03;;;;;;;24.64;47.74;100747.16;4140867;28;20117;-70
2023/09/07 19:22:40;;;;;;;7.97;4.68;;;;;;;24.60;47.47;100751.72;4147670;28;20050;-67
2023/09/07 19:24:43;;;;;;;7.75;4.68;;;;;;;24.54;48.08;100752.81;4136789;28;20092;-62
2023/09/07 19:26:46;;;;;;;8.35;4.63;;;;;;;24.53;48.21;100751.09;4144744;28;20177;-63
2023/09/07 19:28:49;;;;;;;8.45;4.53;;;;;;;24.48;48.60;100750.38;4150465;28;20042;-66
2023/09/07 19:30:52;;;;;;;7.63;4.30;;;;;;;24.43;48.21;100749.72;4147835;28;20046;-70
2023/09/07 19:32:55;;;;;;;7.47;4.28;;;;;;;24.37;48.43;100749.94;4139769;28;20050;-71
2023/09/07 19:34:59;;;;;;;8.68;4.97;;;;;;;24.30;48.64;100751.09;4138865;28;20061;-69
2023/09/07 19:37:03;;;;;;;7.13;4.13;;;;;;;24.24;49.29;100744.25;4147843;28;20088;-71
2023/09/07 19:39:07;;;;;;;7.03;4.43;;;;;;;24.24;48.89;100746.91;4153292;28;20049;-71
2023/09/07 19:41:09;;;;;;;6.90;4.80;;;;;;;24.25;48.73;100747.75;4145356;28;20057;-72
2023/09/07 19:43:12;;;;;;;6.68;4.10;;;;;;;24.21;48.80;100749.66;4146867;28;20041;-71
2023/09/07 19:45:15;;;;;;;8.23;4.88;;;;;;;24.19;48.78;100752.38;4129540;28;20054;-72
2023/09/07 19:47:18;;;;;;;9.02;5.03;;;;;;;24.19;48.46;100747.06;4146206;28;20033;-71
2023/09/07 19:49:20;;;;;;;9.05;4.72;;;;;;;24.17;48.53;100753.38;4146765;28;20050;-68
2023/09/07 19:51:24;;;;;;;8.90;4.10;;;;;;;24.18;48.55;100750.66;4139767;28;20042;-73
2023/09/07 19:53:28;;;;;;;5.05;4.00;;;;;;;24.18;48.78;100747.13;4147051;28;20485;-69
2023/09/07 19:55:34;;;;;;;6.32;4.25;;;;;;;24.13;49.20;100749.09;4147120;28;20456;-70
2023/09/07 19:57:37;;;;;;;6.97;4.43;;;;;;;24.00;49.27;100746.03;4138223;28;20132;-71
2023/09/07 19:59:44;;;;;;;9.32;4.75;;;;;;;23.96;49.75;100749.72;4143600;28;20046;-70
2023/09/07 20:01:55;;;;;;;5.95;4.63;;;;;;;23.94;49.18;100751.56;4137653;28;20038;-71
2023/09/07 20:03:59;;;;;;;8.45;4.10;;;;;;;23.90;49.68;100750.81;4148450;28;20088;-70
2023/09/07 20:06:01;;;;;;;7.25;4.43;;;;;;;23.89;49.64;100754.41;4148063;28;20037;-71
2023/09/07 20:08:04;;;;;;;6.32;4.07;;;;;;;23.84;49.92;100751.88;4148351;28;20042;-72
2023/09/07 20:10:09;;;;;;;6.70;4.32;;;;;;;23.81;50.21;100751.97;4147937;28;20576;-72
2023/09/07 20:12:12;;;;;;;8.07;4.22;;;;;;;23.77;50.66;100754.81;4148338;28;20072;-71
2023/09/07 20:14:15;;;;;;;8.95;4.63;;;;;;;23.75;50.52;100746.91;4144332;28;20333;-71
2023/09/07 20:16:18;;;;;;;7.55;4.32;;;;;;;23.68;50.66;100746.28;4145143;28;20049;-70
2023/09/07 20:18:21;;;;;;;6.30;4.80;;;;;;;23.66;50.60;100747.25;4145543;28;20124;-70
2023/09/07 20:20:24;;;;;;;7.30;4.47;;;;;;;23.64;50.61;100744.63;4147383;28;20041;-70
2023/09/07 20:22:27;;;;;;;7.90;4.85;;;;;;;23.62;51.22;100746.47;4148813;28;20042;-70
2023/09/07 20:24:29;;;;;;;5.78;4.10;;;;;;;23.60;50.90;100748.31;4141616;28;20100;-70
2023/09/07 20:26:33;;;;;;;7.65;4.72;;;;;;;23.59;50.91;100751.03;4135898;28;20045;-69
2023/09/07 20:28:36;;;;;;;9.45;4.57;;;;;;;23.57;50.96;100748.44;4140432;28;20628;-70
2023/09/07 20:30:39;;;;;;;7.20;4.03;;;;;;;23.56;51.12;100751.16;4145652;28;20555;-70
2023/09/07 20:32:42;;;;;;;8.73;5.03;;;;;;;23.55;51.28;100755.56;4144359;28;20409;-70
2023/09/07 20:34:46;;;;;;;9.80;5.10;;;;;;;23.51;51.56;100751.31;4143445;28;20481;-70
2023/09/07 20:36:48;;;;;;;6.60;4.22;;;;;;;23.46;51.30;100750.59;4147228;28;20100;-71
2023/09/07 20:38:52;;;;;;;8.88;4.65;;;;;;;23.44;51.52;100752.44;4147232;28;20128;-71
2023/09/07 20:40:55;;;;;;;6.78;4.72;;;;;;;23.42;51.48;100759.56;4145209;28;20073;-71
2023/09/07 20:43:03;;;;;;;8.40;4.90;;;;;;;23.38;50.98;100761.47;4146415;28;20065;-71
2023/09/07 20:45:07;;;;;;;6.05;4.45;;;;;;;23.36;51.50;100760.63;4144579;28;20096;-71
2023/09/07 20:47:10;;;;;;;8.73;4.50;;;;;;;23.34;51.59;100763.34;4147357;28;20049;-71
2023/09/07 20:49:13;;;;;;;6.60;4.45;;;;;;;23.31;51.21;100758.16;4147287;28;20044;-71
2023/09/07 20:51:16;;;;;;;10.25;4.97;;;;;;;23.31;51.39;100758.16;4130449;28;20041;-70
2023/09/07 20:53:19;;;;;;;7.78;4.97;;;;;;;23.31;51.39;100749.34;4141850;28;20052;-70
2023/09/07 20:55:22;;;;;;;7.63;4.78;;;;;;;23.27;51.90;100751.22;4141943;28;20080;-70
2023/09/07 20:57:25;;;;;;;8.25;4.78;;;;;;;23.23;51.71;100752.25;4146091;28;20050;-70
2023/09/07 20:59:30;;;;;;;8.57;4.68;;;;;;;23.19;52.23;100758.59;4144057;28;20042;-70
2023/09/07 21:01:33;;;;;;;9.88;4.60;;;;;;;23.12;52.14;100760.56;4143882;28;20054;-71
2023/09/07 21:03:36;;;;;;;8.50;4.78;;;;;;;23.04;52.24;100753.75;4147788;28;20456;-71
2023/09/07 21:05:39;;;;;;;8.05;5.03;;;;;;;23.00;52.47;100748.53;4157881;28;20063;-70
2023/09/07 21:07:42;;;;;;;9.93;5.25;;;;;;;22.96;52.61;100746.03;4143628;28;20041;-70
2023/09/07 21:09:47;;;;;;;8.00;4.75;;;;;;;22.89;52.82;100755.97;4146816;28;20579;-70
2023/09/07 21:11:50;;;;;;;8.00;4.75;;;;;;;22.83;53.40;100756.19;4147895;28;20034;-69
2023/09/07 21:13:53;;;;;;;10.32;5.43;;;;;;;22.78;53.66;100755.44;4146075;28;20065;-68
2023/09/07 21:15:57;;;;;;;7.88;4.93;;;;;;;22.75;53.52;100758.19;4144085;28;20038;-68
2023/09/07 21:18:00;;;;;;;;;;;;;;;22.58;54.13;100758.75;4146279;28;20041;-68
2023/09/07 21:20:03;;;;;;;9.35;4.97;;;;;;;22.55;53.72;100748.25;4139197;28;20428;-68
2023/09/07 21:22:06;;;;;;;12.05;5.35;;;;;;;22.55;54.03;100751.75;4141834;28;20544;-68
2023/09/07 21:24:09;;;;;;;9.40;5.60;;;;;;;22.55;53.92;100743.78;4142833;28;20103;-68
2023/09/07 21:26:12;;;;;;;8.23;4.53;;;;;;;22.53;53.64;100743.00;4141794;28;20041;-68
2023/09/07 21:28:15;;;;;;;10.40;4.95;;;;;;;22.49;53.79;100746.66;4128073;28;20077;-69
2023/09/07 21:30:18;;;;;;;8.25;5.60;;;;;;;22.45;53.20;100748.50;4123131;28;20045;-69
2023/09/07 21:32:23;;;;;;;10.05;4.63;;;;;;;22.43;53.33;100752.13;4124110;28;20038;-69
2023/09/07 21:34:26;;;;;;;8.63;5.00;;;;;;;22.43;53.25;100753.00;4156958;28;20501;-70
2023/09/07 21:36:29;;;;;;;10.02;4.63;;;;;;;22.43;53.44;100758.28;4144508;28;20133;-69
2023/09/07 21:38:32;;;;;;;7.10;5.00;;;;;;;22.44;52.70;100748.56;4140136;28;20041;-69
2023/09/07 21:40:36;;;;;;;10.43;4.73;;;;;;;22.46;52.42;100747.59;4127536;28;20108;-69
2023/09/07 21:42:38;;;;;;;7.70;4.90;;;;;;;22.43;52.21;100746.84;4141924;28;20107;-69
2023/09/07 21:44:41;;;;;;;9.65;4.88;;;;;;;22.43;52.21;100749.50;4145262;28;20033;-70
2023/09/07 21:46:44;;;;;;;9.38;5.30;;;;;;;22.43;52.07;100744.19;4145928;28;20052;-70
2023/09/07 21:48:49;;;;;;;6.15;4.00;;;;;;;22.43;51.98;100749.50;4144319;28;20038;-70
2023/09/07 21:50:53;;;;;;;7.47;4.55;;;;;;;22.45;52.04;100755.59;4144840;28;20066;-70
2023/09/07 21:52:55;;;;;;;7.60;4.63;;;;;;;22.44;51.66;100754.75;4146465;28;20033;-69
2023/09/07 21:54:58;;;;;;;7.75;5.05;;;;;;;22.46;51.64;100760.00;4143837;28;20049;-69
2023/09/07 21:57:03;;;;;;;8.13;4.53;;;;;;;22.46;51.38;100749.41;4143776;28;20045;-69
2023/09/07 21:59:06;;;;;;;8.63;4.78;;;;;;;22.47;50.98;100752.00;4145357;28;20038;-70
2023/09/07 22:01:09;;;;;;;7.13;4.43;;;;;;;22.47;50.89;100748.47;4140747;28;20042;-70
2023/09/07 22:03:12;;;;;;;8.88;4.68;;;;;;;22.51;50.40;100750.09;4141320;28;20049;-71
2023/09/07 22:05:17;;;;;;;7.85;4.82;;;;;;;22.52;50.62;100757.16;4145206;28;20488;-70
2023/09/07 22:07:20;;;;;;;9.00;4.93;;;;;;;22.52;50.89;100740.41;4142544;28;20484;-69
2023/09/07 22:09:24;;;;;;;7.50;4.95;;;;;;;22.47;50.78;100746.69;4143834;28;20070;-70
2023/09/07 22:11:26;;;;;;;7.65;4.95;;;;;;;22.46;50.75;100746.75;4144478;28;20472;-70
2023/09/07 22:13:29;;;;;;;8.25;5.28;;;;;;;22.43;50.56;100742.41;4135690;28;20042;-69
2023/09/07 22:15:32;;;;;;;9.48;5.10;;;;;;;22.38;50.60;100736.34;4135102;28;20129;-69
2023/09/07 22:17:35;;;;;;;8.70;4.82;;;;;;;22.36;50.68;100740.84;4143479;28;20030;-70
2023/09/07 22:19:42;;;;;;;9.13;5.00;;;;;;;22.32;50.98;100741.84;4141230;28;20072;-69
2023/09/07 22:21:46;;;;;;;10.90;4.95;;;;;;;22.27;51.69;100747.25;4141959;28;20046;-69
2023/09/07 22:23:49;;;;;;;;;;;;;;;22.14;52.16;100744.09;4144939;28;20488;-69
2023/09/07 22:25:52;;;;;;;11.43;5.20;;;;;;;22.16;51.91;100744.06;4145454;28;19921;-69
2023/09/07 22:27:59;;;;;;;6.78;4.28;;;;;;;22.17;52.33;100744.94;4137325;28;20489;-69
2023/09/07 22:30:01;;;;;;;8.60;5.45;;;;;;;22.11;52.51;100740.69;4145034;28;20040;-69
2023/09/07 22:32:05;;;;;;;7.45;4.68;;;;;;;22.07;52.27;100741.69;4145091;28;20062;-69
2023/09/07 22:34:08;;;;;;;7.63;5.13;;;;;;;21.99;52.40;100736.63;4141226;28;20083;-69
2023/09/07 22:36:11;;;;;;;9.32;4.97;;;;;;;21.99;52.20;100741.91;4141040;28;20038;-69
2023/09/07 22:38:15;;;;;;;8.30;4.80;;;;;;;21.97;52.56;100733.13;4152324;28;20057;-69
2023/09/07 22:40:18;;;;;;;;;;;;;;;21.85;53.38;100749.38;4143952;28;20440;-69
2023/09/07 22:42:20;;;;;;;11.18;5.00;;;;;;;21.87;53.89;100743.09;4145365;28;19929;-69
2023/09/07 22:44:23;;;;;;;9.45;5.30;;;;;;;21.89;54.57;100738.66;4143610;28;20045;-69
2023/09/07 22:46:26;;;;;;;11.25;4.72;;;;;;;21.88;55.18;100733.41;4144905;28;20037;-69
2023/09/07 22:48:29;;;;;;;6.50;4.25;;;;;;;21.83;55.73;100741.47;4147709;28;20052;-69
2023/09/07 22:50:32;;;;;;;9.95;5.20;;;;;;;21.79;56.57;100739.81;4143117;28;20088;-69
2023/09/07 22:52:36;;;;;;;9.00;5.10;;;;;;;21.73;57.09;100737.34;4147047;28;20046;-69
2023/09/07 22:54:40;;;;;;;11.93;5.60;;;;;;;21.67;57.48;100738.38;4145535;28;20064;-69
2023/09/07 22:56:43;;;;;;;;;;;;;;;21.49;58.43;100731.78;4147538;28;20065;-70
2023/09/07 22:58:46;;;;;;;8.65;5.60;;;;;;;21.48;58.65;100735.34;4142543;28;20380;-69
2023/09/07 23:00:51;;;;;;;9.48;5.43;;;;;;;21.50;58.69;100733.50;4146962;28;20088;-69
2023/09/07 23:02:54;;;;;;;8.10;5.63;;;;;;;;;;4146709;28;20038;-69
2023/09/07 23:04:57;;;;;;;12.07;6.20;;;;;;;21.44;58.59;100734.53;4146278;28;20537;-69
2023/09/07 23:07:00;;;;;;;8.02;5.18;;;;;;;21.42;58.91;100732.84;4145251;28;20034;-69
2023/09/07 23:09:04;;;;;;;11.55;5.55;;;;;;;21.39;58.49;100739.09;4147244;28;20388;-69
2023/09/07 23:11:08;;;;;;;7.65;5.15;;;;;;;21.38;58.18;100739.13;4145694;28;20097;-69
2023/09/07 23:13:11;;;;;;;10.80;5.50;;;;;;;21.37;58.18;100742.69;4140017;28;20107;-69
2023/09/07 23:15:14;;;;;;;8.88;5.80;;;;;;;21.35;58.24;100749.78;4146974;28;20065;-69
2023/09/07 23:17:17;;;;;;;12.40;6.50;;;;;;;21.32;58.35;100747.22;4142827;28;20061;-69
2023/09/07 23:19:20;;;;;;;9.45;6.03;;;;;;;21.31;58.55;100740.22;4144378;28;20125;-69
2023/09/07 23:21:23;;;;;;;11.00;6.18;;;;;;;21.30;58.59;100747.25;4145665;28;20045;-70
2023/09/07 23:23:26;;;;;;;9.65;6.38;;;;;;;21.26;58.80;100743.84;4146929;28;20092;-70
2023/09/07 23:25:29;;;;;;;9.43;6.22;;;;;;;21.23;58.88;100743.03;4147911;28;20030;-70
2023/09/07 23:27:33;;;;;;;10.48;6.13;;;;;;;21.20;58.66;100746.66;4147500;28;20070;-69
2023/09/07 23:29:39;;;;;;;8.70;5.93;;;;;;;21.21;58.76;100747.50;4147351;28;20068;-70
2023/09/07 23:31:43;;;;;;;11.60;6.45;;;;;;;21.18;59.21;100747.59;4144685;28;20296;-70
2023/09/07 23:33:46;;;;;;;9.70;6.35;;;;;;;21.16;59.42;100747.63;4147443;28;20378;-70
2023/09/07 23:35:50;;;;;;;10.18;6.32;;;;;;;21.16;59.62;100754.66;4138011;28;20539;-70
2023/09/07 23:37:53;;;;;;;10.45;6.43;;;;;;;21.10;60.29;100745.13;4147723;28;20042;-70
2023/09/07 23:39:56;;;;;;;9.52;5.93;;;;;;;21.07;59.85;100751.38;4147201;28;20042;-70
2023/09/07 23:41:59;;;;;;;10.90;6.00;;;;;;;21.02;60.09;100747.94;4147208;28;20041;-69
2023/09/07 23:44:03;;;;;;;8.57;6.57;;;;;;;20.97;60.49;100743.69;4145341;28;20046;-70
2023/09/07 23:46:05;;;;;;;9.43;5.57;;;;;;;20.96;60.34;100750.75;4146336;28;20069;-70
2023/09/07 23:48:08;;;;;;;11.80;6.35;;;;;;;20.97;60.19;100749.84;4118981;28;20046;-70
2023/09/07 23:50:10;;;;;;;8.73;6.35;;;;;;;20.96;61.02;100747.25;4139151;28;20053;-69
2023/09/07 23:52:14;;;;;;;13.82;6.53;;;;;;;20.90;61.13;100743.84;4146984;28;20037;-69
2023/09/07 23:54:17;;;;;;;10.40;6.70;;;;;;;20.85;61.50;100743.09;4146974;28;20497;-69
2023/09/07 23:56:20;;;;;;;9.43;6.55;;;;;;;20.87;61.53;100740.41;4144285;28;20072;-69
2023/09/07 23:58:22;;;;;;;10.60;6.03;;;;;;;20.85;61.91;100736.91;4146957;28;20132;-69
